sensor_id;sensor_type;location;lat;lon;timestamp;temperature;humidity
14277;DHT22;7222;57.346;12.150;2022-09-09T00:02:27;12.50;99.90
14277;DHT22;7222;57.346;12.150;2022-09-09T00:05:04;12.50;99.90
14277;DHT22;7222;57.346;12.150;2022-09-09T00:07:41;12.50;99.90
14277;DHT22;7222;57.346;12.150;2022-09-09T00:10:18;12.50;99.90
14277;DHT22;7222;57.346;12.150;2022-09-09T00:12:53;12.40;99.90
14277;DHT22;7222;57.346;12.150;2022-09-09T00:15:25;12.40;99.90
14277;DHT22;7222;57.346;12.150;2022-09-09T00:17:56;12.40;99.90
14277;DHT22;7222;57.346;12.150;2022-09-09T00:20:31;12.40;99.90
14277;DHT22;7222;57.346;12.150;2022-09-09T00:23:03;12.30;99.90
14277;DHT22;7222;57.346;12.150;2022-09-09T00:25:40;12.30;99.90
14277;DHT22;7222;57.346;12.150;2022-09-09T00:28:15;12.30;99.90
14277;DHT22;7222;57.346;12.150;2022-09-09T00:30:45;12.40;99.90
14277;DHT22;7222;57.346;12.150;2022-09-09T00:33:15;12.30;99.90
14277;DHT22;7222;57.346;12.150;2022-09-09T00:35:48;12.30;99.90
14277;DHT22;7222;57.346;12.150;2022-09-09T00:38:19;12.30;99.90
14277;DHT22;7222;57.346;12.150;2022-09-09T00:40:51;12.30;99.90
14277;DHT22;7222;57.346;12.150;2022-09-09T00:43:27;12.20;99.90
14277;DHT22;7222;57.346;12.150;2022-09-09T00:46:38;12.20;99.90
14277;DHT22;7222;57.346;12.150;2022-09-09T00:49:15;12.20;99.90
14277;DHT22;7222;57.346;12.150;2022-09-09T00:51:54;12.20;99.90
14277;DHT22;7222;57.346;12.150;2022-09-09T00:54:33;12.20;99.90
14277;DHT22;7222;57.346;12.150;2022-09-09T00:57:17;12.20;99.90
14277;DHT22;7222;57.346;12.150;2022-09-09T00:59:51;12.10;99.90
14277;DHT22;7222;57.346;12.150;2022-09-09T01:02:26;12.20;99.90
14277;DHT22;7222;57.346;12.150;2022-09-09T01:04:55;12.10;99.90
14277;DHT22;7222;57.346;12.150;2022-09-09T01:07:26;12.20;99.90
14277;DHT22;7222;57.346;12.150;2022-09-09T01:09:56;12.20;99.90
14277;DHT22;7222;57.346;12.150;2022-09-09T01:12:33;12.20;99.90
14277;DHT22;7222;57.346;12.150;2022-09-09T01:15:08;12.10;99.90
14277;DHT22;7222;57.346;12.150;2022-09-09T01:17:51;12.10;99.90
14277;DHT22;7222;57.346;12.150;2022-09-09T01:20:23;12.10;99.90
14277;DHT22;7222;57.346;12.150;2022-09-09T01:26:09;12.10;99.90
14277;DHT22;7222;57.346;12.150;2022-09-09T01:28:40;12.10;99.90
14277;DHT22;7222;57.346;12.150;2022-09-09T01:31:12;12.10;99.90
14277;DHT22;7222;57.346;12.150;2022-09-09T01:33:40;12.10;99.90
14277;DHT22;7222;57.346;12.150;2022-09-09T01:36:10;12.10;99.90
14277;DHT22;7222;57.346;12.150;2022-09-09T01:38:38;12.10;99.90
14277;DHT22;7222;57.346;12.150;2022-09-09T01:41:06;12.10;99.90
14277;DHT22;7222;57.346;12.150;2022-09-09T01:43:34;12.10;99.90
14277;DHT22;7222;57.346;12.150;2022-09-09T01:46:01;12.10;99.90
14277;DHT22;7222;57.346;12.150;2022-09-09T01:48:29;12.10;99.90
14277;DHT22;7222;57.346;12.150;2022-09-09T01:50:56;12.10;99.90
14277;DHT22;7222;57.346;12.150;2022-09-09T01:53:23;12.10;99.90
14277;DHT22;7222;57.346;12.150;2022-09-09T01:56:02;12.10;99.90
14277;DHT22;7222;57.346;12.150;2022-09-09T01:58:37;12.10;99.90
14277;DHT22;7222;57.346;12.150;2022-09-09T02:01:15;12.10;99.90
14277;DHT22;7222;57.346;12.150;2022-09-09T02:03:47;12.00;99.90
14277;DHT22;7222;57.346;12.150;2022-09-09T02:06:25;12.10;99.90
14277;DHT22;7222;57.346;12.150;2022-09-09T02:08:55;12.00;99.90
14277;DHT22;7222;57.346;12.150;2022-09-09T02:11:24;12.10;99.90
14277;DHT22;7222;57.346;12.150;2022-09-09T02:13:56;12.00;99.90
14277;DHT22;7222;57.346;12.150;2022-09-09T02:16:27;12.00;99.90
14277;DHT22;7222;57.346;12.150;2022-09-09T02:18:59;12.10;99.90
14277;DHT22;7222;57.346;12.150;2022-09-09T02:21:28;12.00;99.90
14277;DHT22;7222;57.346;12.150;2022-09-09T02:23:59;12.00;99.90
14277;DHT22;7222;57.346;12.150;2022-09-09T02:26:32;12.10;99.90
14277;DHT22;7222;57.346;12.150;2022-09-09T02:29:05;12.10;99.90
14277;DHT22;7222;57.346;12.150;2022-09-09T02:31:35;12.10;99.90
14277;DHT22;7222;57.346;12.150;2022-09-09T02:34:04;12.10;99.90
14277;DHT22;7222;57.346;12.150;2022-09-09T02:36:33;12.00;99.90
14277;DHT22;7222;57.346;12.150;2022-09-09T02:39:03;12.00;99.90
14277;DHT22;7222;57.346;12.150;2022-09-09T02:41:32;12.10;99.90
14277;DHT22;7222;57.346;12.150;2022-09-09T02:44:01;12.10;99.90
14277;DHT22;7222;57.346;12.150;2022-09-09T02:46:37;12.10;99.90
14277;DHT22;7222;57.346;12.150;2022-09-09T02:49:10;12.10;99.90
14277;DHT22;7222;57.346;12.150;2022-09-09T02:51:42;12.10;99.90
14277;DHT22;7222;57.346;12.150;2022-09-09T02:54:17;12.10;99.90
14277;DHT22;7222;57.346;12.150;2022-09-09T02:56:51;12.10;99.90
14277;DHT22;7222;57.346;12.150;2022-09-09T02:59:21;12.10;99.90
14277;DHT22;7222;57.346;12.150;2022-09-09T03:01:48;12.10;99.90
14277;DHT22;7222;57.346;12.150;2022-09-09T03:04:15;12.10;99.90
14277;DHT22;7222;57.346;12.150;2022-09-09T03:06:42;12.00;99.90
14277;DHT22;7222;57.346;12.150;2022-09-09T03:09:09;12.10;99.90
14277;DHT22;7222;57.346;12.150;2022-09-09T03:11:37;12.10;99.90
14277;DHT22;7222;57.346;12.150;2022-09-09T03:14:04;12.10;99.90
14277;DHT22;7222;57.346;12.150;2022-09-09T03:16:33;12.10;99.90
14277;DHT22;7222;57.346;12.150;2022-09-09T03:19:00;12.10;99.90
14277;DHT22;7222;57.346;12.150;2022-09-09T03:21:27;12.10;99.90
14277;DHT22;7222;57.346;12.150;2022-09-09T03:23:54;12.20;99.90
14277;DHT22;7222;57.346;12.150;2022-09-09T03:26:21;12.20;99.90
14277;DHT22;7222;57.346;12.150;2022-09-09T03:28:48;12.20;99.90
14277;DHT22;7222;57.346;12.150;2022-09-09T03:31:15;12.20;99.90
14277;DHT22;7222;57.346;12.150;2022-09-09T03:33:43;12.20;99.90
14277;DHT22;7222;57.346;12.150;2022-09-09T03:36:10;12.20;99.90
14277;DHT22;7222;57.346;12.150;2022-09-09T03:38:37;12.20;99.90
14277;DHT22;7222;57.346;12.150;2022-09-09T03:41:05;12.20;99.90
14277;DHT22;7222;57.346;12.150;2022-09-09T03:43:33;12.20;99.90
14277;DHT22;7222;57.346;12.150;2022-09-09T03:46:00;12.20;99.90
14277;DHT22;7222;57.346;12.150;2022-09-09T03:48:27;12.20;99.90
14277;DHT22;7222;57.346;12.150;2022-09-09T03:50:56;12.20;99.90
14277;DHT22;7222;57.346;12.150;2022-09-09T03:53:24;12.20;99.90
14277;DHT22;7222;57.346;12.150;2022-09-09T03:55:52;12.20;99.90
14277;DHT22;7222;57.346;12.150;2022-09-09T03:58:22;12.20;99.90
14277;DHT22;7222;57.346;12.150;2022-09-09T04:00:56;12.20;99.90
14277;DHT22;7222;57.346;12.150;2022-09-09T04:03:24;12.20;99.90
14277;DHT22;7222;57.346;12.150;2022-09-09T04:05:51;12.20;99.90
14277;DHT22;7222;57.346;12.150;2022-09-09T04:08:20;12.30;99.90
14277;DHT22;7222;57.346;12.150;2022-09-09T04:10:48;12.30;99.90
14277;DHT22;7222;57.346;12.150;2022-09-09T04:13:17;12.30;99.90
14277;DHT22;7222;57.346;12.150;2022-09-09T04:15:50;12.30;99.90
14277;DHT22;7222;57.346;12.150;2022-09-09T04:18:17;12.40;99.90
14277;DHT22;7222;57.346;12.150;2022-09-09T04:20:46;12.30;99.90
14277;DHT22;7222;57.346;12.150;2022-09-09T04:23:13;12.40;99.90
14277;DHT22;7222;57.346;12.150;2022-09-09T04:25:45;12.40;99.90
14277;DHT22;7222;57.346;12.150;2022-09-09T04:28:12;12.50;99.90
14277;DHT22;7222;57.346;12.150;2022-09-09T04:30:39;12.50;99.90
14277;DHT22;7222;57.346;12.150;2022-09-09T04:33:07;12.50;99.90
14277;DHT22;7222;57.346;12.150;2022-09-09T04:35:35;12.60;99.90
14277;DHT22;7222;57.346;12.150;2022-09-09T04:38:02;12.60;99.90
14277;DHT22;7222;57.346;12.150;2022-09-09T04:40:30;12.60;99.90
14277;DHT22;7222;57.346;12.150;2022-09-09T04:42:59;12.60;99.90
14277;DHT22;7222;57.346;12.150;2022-09-09T04:45:26;12.60;99.90
14277;DHT22;7222;57.346;12.150;2022-09-09T04:47:53;12.60;99.90
14277;DHT22;7222;57.346;12.150;2022-09-09T04:50:20;12.60;99.90
14277;DHT22;7222;57.346;12.150;2022-09-09T04:52:47;12.70;99.90
14277;DHT22;7222;57.346;12.150;2022-09-09T04:55:14;12.70;99.90
14277;DHT22;7222;57.346;12.150;2022-09-09T04:57:41;12.60;99.90
14277;DHT22;7222;57.346;12.150;2022-09-09T05:00:11;12.70;99.90
14277;DHT22;7222;57.346;12.150;2022-09-09T05:02:39;12.70;99.90
14277;DHT22;7222;57.346;12.150;2022-09-09T05:05:08;12.70;99.90
14277;DHT22;7222;57.346;12.150;2022-09-09T05:07:36;12.70;99.90
14277;DHT22;7222;57.346;12.150;2022-09-09T05:10:04;12.70;99.90
14277;DHT22;7222;57.346;12.150;2022-09-09T05:12:31;12.80;99.90
14277;DHT22;7222;57.346;12.150;2022-09-09T05:14:58;12.80;99.90
14277;DHT22;7222;57.346;12.150;2022-09-09T05:17:27;12.80;99.90
14277;DHT22;7222;57.346;12.150;2022-09-09T05:19:54;12.90;99.90
14277;DHT22;7222;57.346;12.150;2022-09-09T05:22:21;12.90;99.90
14277;DHT22;7222;57.346;12.150;2022-09-09T05:24:48;12.80;99.90
14277;DHT22;7222;57.346;12.150;2022-09-09T05:27:16;12.70;99.90
14277;DHT22;7222;57.346;12.150;2022-09-09T05:29:45;12.80;99.90
14277;DHT22;7222;57.346;12.150;2022-09-09T05:32:12;12.80;99.90
14277;DHT22;7222;57.346;12.150;2022-09-09T05:34:42;12.80;99.90
14277;DHT22;7222;57.346;12.150;2022-09-09T05:37:08;12.70;99.90
14277;DHT22;7222;57.346;12.150;2022-09-09T05:39:36;12.70;99.90
14277;DHT22;7222;57.346;12.150;2022-09-09T05:42:04;12.60;99.90
14277;DHT22;7222;57.346;12.150;2022-09-09T05:44:31;12.60;99.90
14277;DHT22;7222;57.346;12.150;2022-09-09T05:46:58;12.60;99.90
14277;DHT22;7222;57.346;12.150;2022-09-09T05:49:25;12.60;99.90
14277;DHT22;7222;57.346;12.150;2022-09-09T05:51:53;12.60;99.90
14277;DHT22;7222;57.346;12.150;2022-09-09T05:54:20;12.50;99.90
14277;DHT22;7222;57.346;12.150;2022-09-09T05:56:47;12.50;99.90
14277;DHT22;7222;57.346;12.150;2022-09-09T05:59:15;12.50;99.90
14277;DHT22;7222;57.346;12.150;2022-09-09T06:01:42;12.50;99.90
14277;DHT22;7222;57.346;12.150;2022-09-09T06:04:10;12.60;99.90
14277;DHT22;7222;57.346;12.150;2022-09-09T06:06:38;12.50;99.90
14277;DHT22;7222;57.346;12.150;2022-09-09T06:09:08;12.50;99.90
14277;DHT22;7222;57.346;12.150;2022-09-09T06:11:37;12.60;99.90
14277;DHT22;7222;57.346;12.150;2022-09-09T06:14:04;12.50;99.90
14277;DHT22;7222;57.346;12.150;2022-09-09T06:16:32;12.60;99.90
14277;DHT22;7222;57.346;12.150;2022-09-09T06:19:00;12.60;99.90
14277;DHT22;7222;57.346;12.150;2022-09-09T06:21:29;12.60;99.90
14277;DHT22;7222;57.346;12.150;2022-09-09T06:23:58;12.60;99.90
14277;DHT22;7222;57.346;12.150;2022-09-09T06:26:29;12.60;99.90
14277;DHT22;7222;57.346;12.150;2022-09-09T06:28:56;12.70;99.90
14277;DHT22;7222;57.346;12.150;2022-09-09T06:31:25;12.60;99.90
14277;DHT22;7222;57.346;12.150;2022-09-09T06:33:53;12.80;99.90
14277;DHT22;7222;57.346;12.150;2022-09-09T06:36:22;12.70;99.90
14277;DHT22;7222;57.346;12.150;2022-09-09T06:38:49;12.70;99.90
14277;DHT22;7222;57.346;12.150;2022-09-09T06:41:18;12.80;99.90
14277;DHT22;7222;57.346;12.150;2022-09-09T06:43:47;12.80;99.90
14277;DHT22;7222;57.346;12.150;2022-09-09T06:46:16;12.80;99.90
14277;DHT22;7222;57.346;12.150;2022-09-09T06:48:44;12.80;99.90
14277;DHT22;7222;57.346;12.150;2022-09-09T06:51:13;12.90;99.90
14277;DHT22;7222;57.346;12.150;2022-09-09T06:53:41;12.80;99.90
14277;DHT22;7222;57.346;12.150;2022-09-09T06:56:21;13.00;99.90
14277;DHT22;7222;57.346;12.150;2022-09-09T06:58:51;13.00;99.90
14277;DHT22;7222;57.346;12.150;2022-09-09T07:01:20;13.00;99.90
14277;DHT22;7222;57.346;12.150;2022-09-09T07:03:49;13.10;99.90
14277;DHT22;7222;57.346;12.150;2022-09-09T07:06:18;13.10;99.90
14277;DHT22;7222;57.346;12.150;2022-09-09T07:08:49;13.20;99.90
14277;DHT22;7222;57.346;12.150;2022-09-09T07:11:17;13.20;99.90
14277;DHT22;7222;57.346;12.150;2022-09-09T07:13:44;13.20;99.90
14277;DHT22;7222;57.346;12.150;2022-09-09T07:16:14;13.30;99.90
14277;DHT22;7222;57.346;12.150;2022-09-09T07:18:42;13.30;99.90
14277;DHT22;7222;57.346;12.150;2022-09-09T07:21:10;13.40;99.90
14277;DHT22;7222;57.346;12.150;2022-09-09T07:23:37;13.40;99.90
14277;DHT22;7222;57.346;12.150;2022-09-09T07:26:08;13.60;99.90
14277;DHT22;7222;57.346;12.150;2022-09-09T07:28:36;13.50;99.90
14277;DHT22;7222;57.346;12.150;2022-09-09T07:31:04;13.50;99.90
14277;DHT22;7222;57.346;12.150;2022-09-09T07:33:34;13.60;99.90
14277;DHT22;7222;57.346;12.150;2022-09-09T07:36:04;13.60;99.90
14277;DHT22;7222;57.346;12.150;2022-09-09T07:38:31;13.70;99.90
14277;DHT22;7222;57.346;12.150;2022-09-09T07:41:04;13.80;99.90
14277;DHT22;7222;57.346;12.150;2022-09-09T07:43:32;13.80;99.90
14277;DHT22;7222;57.346;12.150;2022-09-09T07:46:00;13.70;99.90
14277;DHT22;7222;57.346;12.150;2022-09-09T07:48:28;13.80;99.90
14277;DHT22;7222;57.346;12.150;2022-09-09T07:51:05;13.70;99.90
14277;DHT22;7222;57.346;12.150;2022-09-09T07:53:33;13.70;99.90
14277;DHT22;7222;57.346;12.150;2022-09-09T07:56:06;13.70;99.90
14277;DHT22;7222;57.346;12.150;2022-09-09T07:58:34;13.90;99.90
14277;DHT22;7222;57.346;12.150;2022-09-09T08:01:06;13.90;99.90
14277;DHT22;7222;57.346;12.150;2022-09-09T08:03:34;13.80;99.90
14277;DHT22;7222;57.346;12.150;2022-09-09T08:06:04;13.80;99.90
14277;DHT22;7222;57.346;12.150;2022-09-09T08:08:32;13.90;99.90
14277;DHT22;7222;57.346;12.150;2022-09-09T08:11:04;14.00;99.90
14277;DHT22;7222;57.346;12.150;2022-09-09T08:13:32;13.90;99.90
14277;DHT22;7222;57.346;12.150;2022-09-09T08:16:09;14.00;99.90
14277;DHT22;7222;57.346;12.150;2022-09-09T08:18:37;14.00;99.90
14277;DHT22;7222;57.346;12.150;2022-09-09T08:21:08;13.90;99.90
14277;DHT22;7222;57.346;12.150;2022-09-09T08:23:37;14.00;99.90
14277;DHT22;7222;57.346;12.150;2022-09-09T08:26:10;14.10;99.90
14277;DHT22;7222;57.346;12.150;2022-09-09T08:28:38;14.00;99.90
14277;DHT22;7222;57.346;12.150;2022-09-09T08:31:11;13.90;99.90
14277;DHT22;7222;57.346;12.150;2022-09-09T08:33:39;14.00;99.90
14277;DHT22;7222;57.346;12.150;2022-09-09T08:36:10;14.00;99.90
14277;DHT22;7222;57.346;12.150;2022-09-09T08:38:38;14.00;99.90
14277;DHT22;7222;57.346;12.150;2022-09-09T08:41:30;14.00;99.90
14277;DHT22;7222;57.346;12.150;2022-09-09T08:44:05;14.00;99.90
14277;DHT22;7222;57.346;12.150;2022-09-09T08:46:41;14.00;99.90
14277;DHT22;7222;57.346;12.150;2022-09-09T08:49:20;14.00;99.90
14277;DHT22;7222;57.346;12.150;2022-09-09T08:51:53;13.90;99.90
14277;DHT22;7222;57.346;12.150;2022-09-09T08:54:22;13.80;99.90
14277;DHT22;7222;57.346;12.150;2022-09-09T08:56:50;13.90;99.90
14277;DHT22;7222;57.346;12.150;2022-09-09T08:59:18;13.90;99.90
14277;DHT22;7222;57.346;12.150;2022-09-09T09:02:00;13.90;99.90
14277;DHT22;7222;57.346;12.150;2022-09-09T09:04:38;13.90;99.90
14277;DHT22;7222;57.346;12.150;2022-09-09T09:07:19;13.80;99.90
14277;DHT22;7222;57.346;12.150;2022-09-09T09:09:57;13.90;99.90
14277;DHT22;7222;57.346;12.150;2022-09-09T09:12:29;13.80;99.90
14277;DHT22;7222;57.346;12.150;2022-09-09T11:25:25;14.60;99.90
14277;DHT22;7222;57.346;12.150;2022-09-09T11:28:06;14.80;99.90
14277;DHT22;7222;57.346;12.150;2022-09-09T11:30:46;14.90;99.90
14277;DHT22;7222;57.346;12.150;2022-09-09T11:33:41;14.80;99.90
14277;DHT22;7222;57.346;12.150;2022-09-09T11:42:16;15.00;99.90
14277;DHT22;7222;57.346;12.150;2022-09-09T11:44:44;15.00;99.90
14277;DHT22;7222;57.346;12.150;2022-09-09T11:47:20;15.00;99.90
14277;DHT22;7222;57.346;12.150;2022-09-09T11:49:50;15.10;99.90
14277;DHT22;7222;57.346;12.150;2022-09-09T11:52:22;15.10;99.90
14277;DHT22;7222;57.346;12.150;2022-09-09T11:54:51;15.20;99.90
14277;DHT22;7222;57.346;12.150;2022-09-09T11:57:30;15.30;99.90
14277;DHT22;7222;57.346;12.150;2022-09-09T11:59:58;15.20;99.90
14277;DHT22;7222;57.346;12.150;2022-09-09T12:02:27;15.00;99.90
14277;DHT22;7222;57.346;12.150;2022-09-09T12:04:59;15.10;99.90
14277;DHT22;7222;57.346;12.150;2022-09-09T12:07:37;15.00;99.90
14277;DHT22;7222;57.346;12.150;2022-09-09T12:10:20;15.20;99.90
14277;DHT22;7222;57.346;12.150;2022-09-09T12:12:50;15.10;99.90
14277;DHT22;7222;57.346;12.150;2022-09-09T12:15:21;15.10;99.90
14277;DHT22;7222;57.346;12.150;2022-09-09T12:17:50;15.20;99.90
14277;DHT22;7222;57.346;12.150;2022-09-09T12:20:19;15.10;99.90
14277;DHT22;7222;57.346;12.150;2022-09-09T12:23:07;15.20;99.90
14277;DHT22;7222;57.346;12.150;2022-09-09T12:25:52;15.10;99.90
14277;DHT22;7222;57.346;12.150;2022-09-09T12:28:25;15.10;99.90
14277;DHT22;7222;57.346;12.150;2022-09-09T12:30:58;15.00;99.90
14277;DHT22;7222;57.346;12.150;2022-09-09T12:33:34;15.00;99.90
14277;DHT22;7222;57.346;12.150;2022-09-09T12:36:03;15.10;99.90
14277;DHT22;7222;57.346;12.150;2022-09-09T12:38:34;15.10;99.90
14277;DHT22;7222;57.346;12.150;2022-09-09T12:41:02;15.10;99.90
14277;DHT22;7222;57.346;12.150;2022-09-09T12:43:31;15.20;99.90
14277;DHT22;7222;57.346;12.150;2022-09-09T12:46:00;15.10;99.90
14277;DHT22;7222;57.346;12.150;2022-09-09T12:48:33;15.10;99.90
14277;DHT22;7222;57.346;12.150;2022-09-09T12:51:02;15.10;99.90
14277;DHT22;7222;57.346;12.150;2022-09-09T12:53:33;15.00;99.90
14277;DHT22;7222;57.346;12.150;2022-09-09T12:56:03;15.00;99.90
14277;DHT22;7222;57.346;12.150;2022-09-09T12:58:36;15.00;99.90
14277;DHT22;7222;57.346;12.150;2022-09-09T13:01:04;15.10;99.90
14277;DHT22;7222;57.346;12.150;2022-09-09T13:03:33;15.00;99.90
14277;DHT22;7222;57.346;12.150;2022-09-09T13:06:11;14.90;99.90
14277;DHT22;7222;57.346;12.150;2022-09-09T13:08:40;14.90;99.90
14277;DHT22;7222;57.346;12.150;2022-09-09T13:11:10;15.00;99.90
14277;DHT22;7222;57.346;12.150;2022-09-09T13:13:41;15.00;99.90
14277;DHT22;7222;57.346;12.150;2022-09-09T13:16:20;15.00;99.90
14277;DHT22;7222;57.346;12.150;2022-09-09T13:18:48;14.90;99.90
14277;DHT22;7222;57.346;12.150;2022-09-09T13:21:16;14.90;99.90
14277;DHT22;7222;57.346;12.150;2022-09-09T13:23:48;15.00;99.90
14277;DHT22;7222;57.346;12.150;2022-09-09T13:26:22;15.00;99.90
14277;DHT22;7222;57.346;12.150;2022-09-09T13:28:51;15.00;99.90
14277;DHT22;7222;57.346;12.150;2022-09-09T13:31:23;15.00;99.90
14277;DHT22;7222;57.346;12.150;2022-09-09T13:33:53;14.90;99.90
14277;DHT22;7222;57.346;12.150;2022-09-09T13:36:28;14.90;99.90
14277;DHT22;7222;57.346;12.150;2022-09-09T13:38:58;14.90;99.90
14277;DHT22;7222;57.346;12.150;2022-09-09T13:41:29;15.00;99.90
14277;DHT22;7222;57.346;12.150;2022-09-09T13:44:02;15.00;99.90
14277;DHT22;7222;57.346;12.150;2022-09-09T13:46:34;14.90;99.90
14277;DHT22;7222;57.346;12.150;2022-09-09T13:49:18;14.90;99.90
14277;DHT22;7222;57.346;12.150;2022-09-09T13:51:48;15.00;99.90
14277;DHT22;7222;57.346;12.150;2022-09-09T13:54:17;15.00;99.90
14277;DHT22;7222;57.346;12.150;2022-09-09T13:56:45;15.00;99.90
14277;DHT22;7222;57.346;12.150;2022-09-09T13:59:18;15.00;99.90
14277;DHT22;7222;57.346;12.150;2022-09-09T14:01:47;14.90;99.90
14277;DHT22;7222;57.346;12.150;2022-09-09T14:04:15;14.90;99.90
14277;DHT22;7222;57.346;12.150;2022-09-09T14:06:42;15.00;99.90
14277;DHT22;7222;57.346;12.150;2022-09-09T14:09:11;15.10;99.90
14277;DHT22;7222;57.346;12.150;2022-09-09T14:11:39;15.00;99.90
14277;DHT22;7222;57.346;12.150;2022-09-09T14:14:06;14.90;99.90
14277;DHT22;7222;57.346;12.150;2022-09-09T14:16:35;15.00;99.90
14277;DHT22;7222;57.346;12.150;2022-09-09T14:19:03;15.10;99.90
14277;DHT22;7222;57.346;12.150;2022-09-09T14:21:30;15.10;99.90
14277;DHT22;7222;57.346;12.150;2022-09-09T14:23:58;15.10;99.90
14277;DHT22;7222;57.346;12.150;2022-09-09T14:26:25;15.10;99.90
14277;DHT22;7222;57.346;12.150;2022-09-09T14:28:54;15.10;99.90
14277;DHT22;7222;57.346;12.150;2022-09-09T14:31:22;15.20;99.90
14277;DHT22;7222;57.346;12.150;2022-09-09T14:33:51;15.30;99.90
14277;DHT22;7222;57.346;12.150;2022-09-09T14:36:18;15.20;99.90
14277;DHT22;7222;57.346;12.150;2022-09-09T14:38:45;15.20;99.90
14277;DHT22;7222;57.346;12.150;2022-09-09T14:41:14;15.20;99.90
14277;DHT22;7222;57.346;12.150;2022-09-09T14:43:42;15.40;99.90
14277;DHT22;7222;57.346;12.150;2022-09-09T14:46:11;15.40;99.90
14277;DHT22;7222;57.346;12.150;2022-09-09T14:48:39;15.30;99.90
14277;DHT22;7222;57.346;12.150;2022-09-09T14:51:10;15.30;99.90
14277;DHT22;7222;57.346;12.150;2022-09-09T14:53:38;15.40;99.90
14277;DHT22;7222;57.346;12.150;2022-09-09T14:56:07;15.40;99.90
14277;DHT22;7222;57.346;12.150;2022-09-09T14:58:35;15.40;99.90
14277;DHT22;7222;57.346;12.150;2022-09-09T15:01:04;15.50;99.90
14277;DHT22;7222;57.346;12.150;2022-09-09T15:03:33;15.40;99.90
14277;DHT22;7222;57.346;12.150;2022-09-09T15:06:05;15.40;99.90
14277;DHT22;7222;57.346;12.150;2022-09-09T15:08:49;15.60;99.90
14277;DHT22;7222;57.346;12.150;2022-09-09T15:11:16;15.70;99.90
14277;DHT22;7222;57.346;12.150;2022-09-09T15:13:44;15.70;99.90
14277;DHT22;7222;57.346;12.150;2022-09-09T15:16:13;15.70;99.90
14277;DHT22;7222;57.346;12.150;2022-09-09T15:18:40;15.80;99.90
14277;DHT22;7222;57.346;12.150;2022-09-09T15:21:09;15.80;99.90
14277;DHT22;7222;57.346;12.150;2022-09-09T15:23:37;15.70;99.90
14277;DHT22;7222;57.346;12.150;2022-09-09T15:26:12;15.60;99.90
14277;DHT22;7222;57.346;12.150;2022-09-09T15:28:40;15.80;99.90
14277;DHT22;7222;57.346;12.150;2022-09-09T15:31:11;15.60;99.90
14277;DHT22;7222;57.346;12.150;2022-09-09T15:33:40;15.80;99.90
14277;DHT22;7222;57.346;12.150;2022-09-09T15:36:15;15.90;99.90
14277;DHT22;7222;57.346;12.150;2022-09-09T15:38:42;15.80;99.90
14277;DHT22;7222;57.346;12.150;2022-09-09T15:41:12;15.80;99.90
14277;DHT22;7222;57.346;12.150;2022-09-09T15:43:43;15.80;99.90
14277;DHT22;7222;57.346;12.150;2022-09-09T15:46:23;15.70;99.90
14277;DHT22;7222;57.346;12.150;2022-09-09T15:48:52;15.70;99.90
14277;DHT22;7222;57.346;12.150;2022-09-09T15:51:19;15.70;99.90
14277;DHT22;7222;57.346;12.150;2022-09-09T15:53:47;15.70;99.90
14277;DHT22;7222;57.346;12.150;2022-09-09T15:56:15;15.70;99.90
14277;DHT22;7222;57.346;12.150;2022-09-09T15:58:42;15.70;99.90
14277;DHT22;7222;57.346;12.150;2022-09-09T16:01:10;15.70;99.90
14277;DHT22;7222;57.346;12.150;2022-09-09T16:03:39;15.60;99.90
14277;DHT22;7222;57.346;12.150;2022-09-09T16:06:08;15.80;99.90
14277;DHT22;7222;57.346;12.150;2022-09-09T16:08:37;15.70;99.90
14277;DHT22;7222;57.346;12.150;2022-09-09T16:11:06;15.60;99.90
14277;DHT22;7222;57.346;12.150;2022-09-09T16:16:38;15.60;99.90
14277;DHT22;7222;57.346;12.150;2022-09-09T16:19:07;15.60;99.90
14277;DHT22;7222;57.346;12.150;2022-09-09T16:21:37;15.50;99.90
14277;DHT22;7222;57.346;12.150;2022-09-09T16:24:06;15.60;99.90
14277;DHT22;7222;57.346;12.150;2022-09-09T16:26:35;15.50;99.90
14277;DHT22;7222;57.346;12.150;2022-09-09T16:29:03;15.60;99.90
14277;DHT22;7222;57.346;12.150;2022-09-09T16:31:46;15.50;99.90
14277;DHT22;7222;57.346;12.150;2022-09-09T16:34:14;15.50;99.90
14277;DHT22;7222;57.346;12.150;2022-09-09T16:36:44;15.60;99.90
14277;DHT22;7222;57.346;12.150;2022-09-09T16:39:13;15.60;99.90
14277;DHT22;7222;57.346;12.150;2022-09-09T16:41:42;15.60;99.90
14277;DHT22;7222;57.346;12.150;2022-09-09T16:44:11;15.60;99.90
14277;DHT22;7222;57.346;12.150;2022-09-09T16:46:40;15.60;99.90
14277;DHT22;7222;57.346;12.150;2022-09-09T16:49:10;15.70;99.90
14277;DHT22;7222;57.346;12.150;2022-09-09T16:51:38;15.90;99.90
14277;DHT22;7222;57.346;12.150;2022-09-09T16:54:08;16.20;99.90
14277;DHT22;7222;57.346;12.150;2022-09-09T16:56:36;16.10;99.90
14277;DHT22;7222;57.346;12.150;2022-09-09T16:59:08;16.10;99.90
14277;DHT22;7222;57.346;12.150;2022-09-09T17:01:37;16.20;99.90
14277;DHT22;7222;57.346;12.150;2022-09-09T17:07:23;16.40;99.90
14277;DHT22;7222;57.346;12.150;2022-09-09T17:09:57;16.50;99.90
14277;DHT22;7222;57.346;12.150;2022-09-09T17:12:24;16.60;99.90
14277;DHT22;7222;57.346;12.150;2022-09-09T17:14:52;16.60;99.90
14277;DHT22;7222;57.346;12.150;2022-09-09T17:17:21;16.50;99.90
14277;DHT22;7222;57.346;12.150;2022-09-09T17:19:49;16.50;99.90
14277;DHT22;7222;57.346;12.150;2022-09-09T17:22:17;16.40;99.90
14277;DHT22;7222;57.346;12.150;2022-09-09T17:24:45;16.30;99.90
14277;DHT22;7222;57.346;12.150;2022-09-09T17:27:12;16.20;99.90
14277;DHT22;7222;57.346;12.150;2022-09-09T17:29:40;16.10;99.90
14277;DHT22;7222;57.346;12.150;2022-09-09T17:32:07;16.00;99.90
14277;DHT22;7222;57.346;12.150;2022-09-09T17:34:35;15.90;99.90
14277;DHT22;7222;57.346;12.150;2022-09-09T17:37:04;15.80;99.90
14277;DHT22;7222;57.346;12.150;2022-09-09T17:39:32;15.80;99.90
14277;DHT22;7222;57.346;12.150;2022-09-09T17:41:59;15.80;99.90
14277;DHT22;7222;57.346;12.150;2022-09-09T17:44:26;15.80;99.90
14277;DHT22;7222;57.346;12.150;2022-09-09T17:46:54;15.70;99.90
14277;DHT22;7222;57.346;12.150;2022-09-09T17:49:21;15.60;99.90
14277;DHT22;7222;57.346;12.150;2022-09-09T17:51:49;15.50;99.90
14277;DHT22;7222;57.346;12.150;2022-09-09T17:54:19;15.40;99.90
14277;DHT22;7222;57.346;12.150;2022-09-09T17:56:47;15.20;99.90
14277;DHT22;7222;57.346;12.150;2022-09-09T17:59:16;15.10;99.90
14277;DHT22;7222;57.346;12.150;2022-09-09T18:01:45;15.00;99.90
14277;DHT22;7222;57.346;12.150;2022-09-09T18:04:14;15.00;99.90
14277;DHT22;7222;57.346;12.150;2022-09-09T18:06:43;14.90;99.90
14277;DHT22;7222;57.346;12.150;2022-09-09T18:09:13;14.90;99.90
14277;DHT22;7222;57.346;12.150;2022-09-09T18:11:50;14.90;99.90
14277;DHT22;7222;57.346;12.150;2022-09-09T18:14:21;14.90;99.90
14277;DHT22;7222;57.346;12.150;2022-09-09T18:16:49;14.80;99.90